ADDS METAR Data INFO
IDs: Format: Raw Decoded Include TAF

Data at: 0750 UTC 17 Oct 2017

KLGC 170735Z AUTO 00000KT 10SM CLR 12/08 A3022 RMK AO2 T01210082
KLGC 170715Z AUTO 00000KT 10SM CLR 12/08 A3022 RMK AO2 T01200083
KLGC 170655Z AUTO 00000KT 10SM CLR 12/08 A3021 RMK AO2 T01210083
KLGC 170635Z AUTO 00000KT 10SM CLR 12/08 A3022 RMK AO2 T01230083
KLGC 170615Z AUTO 00000KT 10SM CLR 12/08 A3021 RMK AO2 T01240083
KLGC 170555Z AUTO 00000KT 10SM CLR 13/08 A3021 RMK AO2 T01260082 10165 20126 402230126
KLGC 170535Z AUTO 00000KT 10SM CLR 13/08 A3021 RMK AO2 T01300081
KLGC 170515Z AUTO 03004KT 10SM CLR 13/08 A3021 RMK AO2 T01310081
KLGC 170455Z AUTO 03003KT 10SM CLR 13/08 A3021 RMK AO2 T01340078
KLGC 170435Z AUTO 04006KT 10SM CLR 14/08 A3021 RMK AO2 T01360078
KLGC 170415Z AUTO 03004KT 10SM CLR 14/08 A3021 RMK AO2 T01370077
KLGC 170355Z AUTO 04003KT 10SM SCT044 14/08 A3021 RMK AO2 T01400076
KLGC 170335Z AUTO 03004KT 10SM CLR 14/08 A3021 RMK AO2 T01420076
KLGC 170315Z AUTO 03006KT 10SM CLR 14/08 A3020 RMK AO2 T01420077
KLGC 170255Z AUTO 03004KT 10SM CLR 15/08 A3020 RMK AO2 T01450078
KLGC 170235Z AUTO 02005KT 10SM CLR 15/08 A3019 RMK AO2 T01460078
KLGC 170215Z AUTO 03005KT 10SM CLR 15/08 A3018 RMK AO2 T01490079
KLGC 170155Z AUTO 02007KT 10SM CLR 15/08 A3017 RMK AO2 T01500080
KLGC 170135Z AUTO 02005KT 10SM CLR 15/08 A3017 RMK AO2 T01500082
KLGC 170115Z AUTO 01003KT 10SM CLR 15/08 A3017 RMK AO2 T01510083
KLGC 170055Z AUTO 36003KT 10SM CLR 15/08 A3016 RMK AO2 T01540084
KLGC 170035Z AUTO 00000KT 10SM CLR 16/09 A3015 RMK AO2 T01570086
KLGC 170015Z AUTO 01004KT 10SM CLR 16/08 A3014 RMK AO2 T01630084
KLGC 162355Z AUTO 00000KT 10SM CLR 17/09 A3013 RMK AO2 T01650085 10219 20165
KLGC 162335Z AUTO 34005KT 10SM CLR 17/08 A3012 RMK AO2 T01690084
KLGC 162315Z AUTO 36004KT 10SM CLR 18/08 A3011 RMK AO2 T01750082
KLGC 162255Z AUTO 35003KT 10SM CLR 18/09 A3011 RMK AO2 T01830085
KLGC 162235Z AUTO 00000KT 10SM CLR 19/09 A3011 RMK AO2 T01910085
KLGC 162215Z AUTO 35006KT 10SM CLR 20/08 A3010 RMK AO2 T02000080
KLGC 162155Z AUTO 01005G08KT 10SM CLR 21/09 A3010 RMK AO2 T02050090
KLGC 162135Z AUTO 36003KT 10SM CLR 21/09 A3009 RMK AO2 T02100093
KLGC 162115Z AUTO 36008KT 340V040 10SM CLR 21/09 A3009 RMK AO2 T02100088
KLGC 162055Z AUTO 02007KT 340V060 10SM CLR 22/09 A3009 RMK AO2 T02150091
KLGC 162035Z AUTO 36007KT 10SM CLR 22/09 A3009 RMK AO2 T02150094
KLGC 162015Z AUTO 34009G14KT 10SM CLR 21/09 A3009 RMK AO2 T02140090
KLGC 161955Z AUTO 35009G15KT 10SM CLR 21/09 A3009 RMK AO2 T02130093
KLGC 161935Z AUTO 35006KT 10SM CLR 21/09 A3009 RMK AO2 T02130093
KLGC 161915Z AUTO 34008KT 10SM CLR 21/10 A3009 RMK AO2 T02130100
KLGC 161855Z AUTO 35009KT 300V020 10SM CLR 21/10 A3009 RMK AO2 T02110098
KLGC 161835Z AUTO 35009KT 310V010 10SM CLR 21/11 A3010 RMK AO2 T02050106
KLGC 161815Z AUTO 35008G15KT 10SM CLR 21/11 A3011 RMK AO2 T02060108
KLGC 161755Z AUTO 33011G14KT 10SM CLR 20/10 A3012 RMK AO2 T02000103 10203 20151
KLGC 161735Z AUTO 34007KT 300V360 10SM CLR 20/12 A3013 RMK AO2 T01970117
KLGC 161715Z AUTO 35007KT 10SM CLR 19/12 A3014 RMK AO2 T01900115
KLGC 161655Z AUTO 01006KT 10SM CLR 19/12 A3014 RMK AO2 T01890118
KLGC 161635Z AUTO 02010G14KT 10SM CLR 18/12 A3015 RMK AO2 T01790124
KLGC 161615Z AUTO 36009G14KT 10SM SCT017 17/12 A3016 RMK AO2 T01650123
KLGC 161555Z AUTO 01009KT 10SM BKN013 16/13 A3016 RMK AO2 T01610129
KLGC 161535Z AUTO 01009KT 10SM OVC013 16/13 A3016 RMK AO2 T01550133
KLGC 161515Z AUTO 36007KT 10SM OVC009 15/14 A3016 RMK AO2 T01520139
KLGC 161455Z AUTO 36008G14KT 10SM OVC009 16/15 A3016 RMK AO2 T01550149
KLGC 161435Z AUTO 36010G16KT 10SM OVC009 16/15 A3015 RMK AO2 T01570151
KLGC 161415Z AUTO 34006KT 10SM OVC009 17/16 A3014 RMK AO2 T01650158
KLGC 161355Z AUTO 36009KT 10SM OVC007 17/16 A3014 RMK AO2 T01650161
KLGC 161335Z AUTO 35006G15KT 10SM OVC007 17/16 A3013 RMK AO2 T01650162
KLGC 161315Z AUTO 34007KT 10SM OVC007 17/17 A3012 RMK AO2 T01700166
KLGC 161255Z AUTO 35005KT 10SM OVC007 18/17 A3010 RMK AO2 T01750171
KLGC 161235Z AUTO 36005KT 10SM OVC005 18/18 A3009 RMK AO2 T01810178
KLGC 161215Z AUTO 04003KT 10SM OVC005 19/19 A3008 RMK AO2 T01870185
KLGC 161155Z AUTO 00000KT 10SM -RA OVC007 19/19 A3008 RMK AO2 T01910189 10223 20191
KLGC 161135Z AUTO 00000KT 10SM -RA OVC007 20/19 A3007 RMK AO2 T01950191
KLGC 161115Z AUTO 00000KT 10SM -RA BKN007 BKN045 OVC085 20/19 A3006 RMK AO2 T01960194
KLGC 161055Z AUTO 36003KT 7SM RA BKN009 BKN029 OVC085 20/20 A3006 RMK AO2 T02000196
KLGC 161035Z AUTO 02007KT 7SM +RA BKN009 OVC015 21/20 A3006 RMK AO2 T02050202
KLGC 161015Z AUTO 36006KT 10SM OVC009 22/21 A3005 RMK AO2 T02150211
KLGC 160955Z AUTO 36003KT 10SM OVC009 22/21 A3005 RMK AO2 T02150212
KLGC 160935Z AUTO 00000KT 10SM OVC009 22/21 A3004 RMK AO2 T02160213
KLGC 160915Z AUTO 00000KT 10SM -DZ SCT009 BKN036 OVC120 22/22 A3004 RMK AO2 T02170215
KLGC 160855Z AUTO 00000KT 10SM SCT009 BKN037 OVC120 22/22 A3004 RMK AO2 T02180215
KLGC 160835Z AUTO 00000KT 10SM -RA BKN007 OVC019 22/22 A3004 RMK AO2 T02210218
KLGC 160815Z AUTO 36004KT 10SM BKN005 OVC021 22/22 A3005 RMK AO2 T02220220
KLGC 160755Z AUTO 00000KT 10SM SCT007 BKN021 OVC033 22/22 A3005 RMK AO2 T02220220
KLGC 160735Z AUTO 33003KT 5SM +RA SCT003 BKN028 OVC034 21/21 A3005 RMK AO2 T02140210
KLGC 160715Z AUTO 00000KT 10SM OVC003 21/21 A3005 RMK AO2 T02120210
KLGC 160655Z AUTO 00000KT 5SM BR BKN003 BKN085 21/21 A3005 RMK AO2 T02100207
KLGC 160635Z AUTO 00000KT 7SM SCT037 BKN085 21/21 A3005 RMK AO2 T02110207
KLGC 160615Z AUTO 00000KT 10SM OVC037 21/21 A3006 RMK AO2 T02120210
KLGC 160555Z AUTO 00000KT 10SM BKN037 OVC043 21/21 A3006 RMK AO2 T02100207 10234 20202 402950186
KLGC 160535Z AUTO 00000KT 7SM BKN037 BKN044 OVC120 21/21 A3007 RMK AO2 T02090206
KLGC 160515Z AUTO 00000KT 10SM BKN037 BKN049 OVC120 21/21 A3007 RMK AO2 T02070205
KLGC 160455Z AUTO 00000KT 10SM SCT043 SCT049 OVC055 21/21 A3007 RMK AO2 T02090206
KLGC 160435Z AUTO 00000KT 7SM BKN055 21/21 A3007 RMK AO2 LTG DSNT NW T02080205
KLGC 160410Z AUTO 00000KT 5SM BR BKN055 20/20 A3007 RMK AO2 T02020200
KLGC 160355Z AUTO 00000KT 10SM SCT055 21/20 A3007 RMK AO2 T02050202
KLGC 160335Z AUTO 00000KT 10SM CLR 21/20 A3007 RMK AO2 T02060203
KLGC 160315Z AUTO 00000KT 3/4SM BR BKN004 21/21 A3008 RMK AO2 T02110208
KLGC 160255Z AUTO 00000KT 1SM BR BKN002 21/21 A3008 RMK AO2 VIS 1/2V5 T02070205
KLGC 160235Z AUTO 00000KT 1SM BR BKN002 21/21 A3008 RMK AO2 VIS 1/2V5 LTG DSNT N T02080205
KLGC 160215Z AUTO 00000KT 1SM BR BKN002 21/20 A3007 RMK AO2 T02080204
KLGC 160155Z AUTO 00000KT 2SM BR SCT003 21/21 A3007 RMK AO2 T02100207
KLGC 160135Z AUTO 00000KT 1/2SM FG BKN003 21/21 A3007 RMK AO2 LTG DSNT N T02130211
KLGC 160115Z AUTO 00000KT 10SM CLR 22/21 A3006 RMK AO2 T02160212
KLGC 160055Z AUTO 00000KT 4SM BR CLR 22/22 A3007 RMK AO2 T02200216
KLGC 160035Z AUTO 00000KT 10SM CLR 22/22 A3006 RMK AO2 T02210218
KLGC 160015Z AUTO 00000KT 10SM CLR 22/22 A3005 RMK AO2 T02220220
KLGC 152355Z AUTO 00000KT 10SM CLR 24/23 A3005 RMK AO2 T02350231 10295 20230
KLGC 152335Z AUTO 00000KT 10SM CLR 23/23 A3004 RMK AO2 LTG DSNT SW T02310228
KLGC 152315Z AUTO 00000KT 10SM CLR 24/24 A3004 RMK AO2 T02410239
KLGC 152255Z AUTO 17004KT 10SM CLR 25/24 A3004 RMK AO2 T02470243
KLGC 152235Z AUTO 00000KT 10SM SCT080 SCT090 27/25 A3005 RMK AO2 T02650245
KLGC 152215Z AUTO 00000KT 10SM OVC090 27/24 A3006 RMK AO2 T02700238
KLGC 152155Z AUTO 00000KT 10SM OVC090 27/23 A3006 RMK AO2 T02720230
KLGC 152135Z AUTO 00000KT 10SM OVC090 28/23 A3007 RMK AO2 T02750226
KLGC 152115Z AUTO 00000KT 10SM OVC090 28/23 A3007 RMK AO2 T02790228
KLGC 152055Z AUTO 00000KT 10SM OVC080 28/23 A3007 RMK AO2 T02790225
KLGC 152035Z AUTO 28005KT 10SM SCT026 SCT080 SCT120 28/22 A3007 RMK AO2 T02840222
KLGC 152015Z AUTO 24003KT 10SM SCT024 28/22 A3007 RMK AO2 T02840222
KLGC 151955Z AUTO 00000KT 10SM SCT024 BKN075 29/22 A3008 RMK AO2 T02920220